Vronskiy — C4AY2 — position and weather

sailwx.info

Track history (hours):
 
Tides and Currents Weather Stations Pressure Air Temp Water Temp Dewpoint Dewpoint Depression Visibility Wind Speed Wind Dir Waves Ship Positions

Vronskiy

Last reported at 2016-Sep-26 08:13 UTC. Time now 2016-Sep-26 10:29 UTC.
Position N 36°50' W 002°28'.

Length 131 m; draft 5.1 m.

Type: Passenger vessel. MMSI: 210030000.

Date/timePositionNaut miles runAvg speedWind from/ knotsBaromVisibWave heightAir tempDewpointWater temp
2016-Sep-26 08:13N 36°50' W 002°28'0 0.0
2016-Sep-24 22:33N 36°50' W 002°28'0 0.0
2016-Sep-24 21:33N 36°50' W 002°28'0 0.0
2016-Sep-23 19:29N 36°50' W 002°28'0 0.0
2016-Sep-23 17:32N 36°50' W 002°28'0 0.0
2016-Sep-23 16:32N 36°50' W 002°28'0 0.0
2016-Sep-23 15:29N 36°50' W 002°28'0 0.0
2016-Sep-23 13:32N 36°50' W 002°28'0 0.0
2016-Sep-23 09:32N 36°50' W 002°28'0 0.0
2016-Sep-23 06:32N 36°50' W 002°28'0 0.0
2016-Sep-23 04:32N 36°50' W 002°28'0 0.0
2016-Sep-23 03:28N 36°50' W 002°28'0 0.0
2016-Sep-23 02:31N 36°50' W 002°28'0 0.0
2016-Sep-23 01:31N 36°50' W 002°28'0 0.0
2016-Sep-23 00:31N 36°50' W 002°28'0 0.0
2016-Sep-22 23:31N 36°50' W 002°28'8 2.6
2016-Sep-22 20:33N 36°42' W 002°27'6 0.3
2016-Sep-21 23:12N 36°36' W 002°26'1217.7
2016-Sep-21 22:33N 36°48' W 002°27'2 0.7
2016-Sep-21 19:32N 36°50' W 002°28'0 0.0
2016-Sep-21 16:29N 36°50' W 002°28'0 0.0
2016-Sep-21 09:32N 36°50' W 002°28'0 0.0
2016-Sep-21 08:32N 36°50' W 002°28'0 0.0
2016-Sep-21 05:32N 36°50' W 002°28'0 0.0
2016-Sep-21 03:32N 36°50' W 002°28'0 0.0
2016-Sep-21 02:32N 36°50' W 002°28'0 0.0
2016-Sep-20 17:31N 36°50' W 002°28'0 0.0
2016-Sep-20 14:31N 36°50' W 002°28'0 0.0
2016-Sep-20 13:31N 36°50' W 002°28'0 0.0
2016-Sep-20 10:31N 36°50' W 002°28'0 0.0
2016-Sep-20 08:31N 36°50' W 002°28'0 0.0
2016-Sep-20 07:31N 36°50' W 002°28'0 0.0
2016-Sep-20 06:31N 36°50' W 002°28'0 0.0
2016-Sep-18 19:32N 36°50' W 002°28'0 0.0
2016-Sep-18 15:14N 36°50' W 002°28'0 0.0
2016-Sep-18 10:32N 36°50' W 002°28'0 0.0
2016-Sep-18 02:32N 36°50' W 002°28'0 0.0
2016-Sep-18 01:32N 36°50' W 002°28'0 0.0
2016-Sep-18 00:32N 36°50' W 002°28'1 0.5
2016-Sep-17 22:34N 36°49' W 002°27'3916.4
2016-Sep-17 20:11N 36°11' W 002°19'40 1.5
2016-Sep-16 17:31N 36°50' W 002°28'0 0.0
2016-Sep-16 12:31N 36°50' W 002°28'0 0.0
2016-Sep-16 09:31N 36°50' W 002°28'  
Track history (hours):
 
Tides and Currents Weather Stations Pressure Air Temp Water Temp Dewpoint Dewpoint Depression Visibility Wind Speed Wind Dir Waves Ship Positions

Vronskiy

Last reported at 2016-Sep-26 08:13 UTC. Time now 2016-Sep-26 10:29 UTC.
Position N 36°50' W 002°28'.

Length 131 m; draft 5.1 m.

Type: Passenger vessel. MMSI: 210030000.

Date/timePositionNaut miles runAvg speedWind from/ knotsBaromVisibWave heightAir tempDewpointWater temp
2016-Sep-26 08:13N 36°50' W 002°28'0 0.0
2016-Sep-24 22:33N 36°50' W 002°28'0 0.0
2016-Sep-24 21:33N 36°50' W 002°28'0 0.0
2016-Sep-23 19:29N 36°50' W 002°28'0 0.0
2016-Sep-23 17:32N 36°50' W 002°28'0 0.0
2016-Sep-23 16:32N 36°50' W 002°28'0 0.0
2016-Sep-23 15:29N 36°50' W 002°28'0 0.0
2016-Sep-23 13:32N 36°50' W 002°28'0 0.0
2016-Sep-23 09:32N 36°50' W 002°28'0 0.0
2016-Sep-23 06:32N 36°50' W 002°28'0 0.0
2016-Sep-23 04:32N 36°50' W 002°28'0 0.0
2016-Sep-23 03:28N 36°50' W 002°28'0 0.0
2016-Sep-23 02:31N 36°50' W 002°28'0 0.0
2016-Sep-23 01:31N 36°50' W 002°28'0 0.0
2016-Sep-23 00:31N 36°50' W 002°28'0 0.0
2016-Sep-22 23:31N 36°50' W 002°28'8 2.6
2016-Sep-22 20:33N 36°42' W 002°27'6 0.3
2016-Sep-21 23:12N 36°36' W 002°26'1217.7
2016-Sep-21 22:33N 36°48' W 002°27'2 0.7
2016-Sep-21 19:32N 36°50' W 002°28'0 0.0
2016-Sep-21 16:29N 36°50' W 002°28'0 0.0
2016-Sep-21 09:32N 36°50' W 002°28'0 0.0
2016-Sep-21 08:32N 36°50' W 002°28'0 0.0
2016-Sep-21 05:32N 36°50' W 002°28'0 0.0
2016-Sep-21 03:32N 36°50' W 002°28'0 0.0
2016-Sep-21 02:32N 36°50' W 002°28'0 0.0
2016-Sep-20 17:31N 36°50' W 002°28'0 0.0
2016-Sep-20 14:31N 36°50' W 002°28'0 0.0
2016-Sep-20 13:31N 36°50' W 002°28'0 0.0
2016-Sep-20 10:31N 36°50' W 002°28'0 0.0
2016-Sep-20 08:31N 36°50' W 002°28'0 0.0
2016-Sep-20 07:31N 36°50' W 002°28'0 0.0
2016-Sep-20 06:31N 36°50' W 002°28'0 0.0
2016-Sep-18 19:32N 36°50' W 002°28'0 0.0
2016-Sep-18 15:14N 36°50' W 002°28'0 0.0
2016-Sep-18 10:32N 36°50' W 002°28'0 0.0
2016-Sep-18 02:32N 36°50' W 002°28'0 0.0
2016-Sep-18 01:32N 36°50' W 002°28'0 0.0
2016-Sep-18 00:32N 36°50' W 002°28'1 0.5
2016-Sep-17 22:34N 36°49' W 002°27'3916.4
2016-Sep-17 20:11N 36°11' W 002°19'40 1.5
2016-Sep-16 17:31N 36°50' W 002°28'0 0.0
2016-Sep-16 12:31N 36°50' W 002°28'0 0.0
2016-Sep-16 09:31N 36°50' W 002°28'  

Dump ship's entire track history